Conception, Missouri
Current Conditions -  °F | °C
As of 4:53 PM on Saturday 25 Oct 2014 (Local Time) from KSTJ Reporting Station
Clear Clear  
Wind Chill: 79°   Ceiling: Unl
Heat Index: 79°   Visibility: 10mi
Dew Point: 47°   Wind: 0mph
Humidity: 32%   Direction: NA
Pressure: 30.02"   Gusts: NA
Location:  40.24°N, 94.69°W
Report Text: KSTJ 252153Z AUTO 00000KT 10SM CLR 26/08 A3002 RMK AO2 SLP162 T02610083
Loading
Personal Weather Stations






























Interactive Weather Map New forecast layout! Learn more

10-Day Weather Forecast

Advertisements
Track Severe Weather on mobile